x

Devils Island, Wi (disw3) Weather Station

11:00am - Sat 1st Aug 2015 All times are CDT. -5 hours from GMT.

  • Wind
    16mph, 20mph gusts
  • Air Temp 63°f
  • Sea Pressure 1012mb
  • Devils Island, Wi
  • Devils Island, Wi

More Historic Weather Station data

Upgrade to MSW Pro to gain access to the past 30 days of data for over 8000 Wavebouys and Weather Stations around the globe.

Join Pro

Comparision Forecast

View Surf forecast
   
Sat 08/01 11:00am 16 20 mph 1012mb 63f
10:00am 16 20 mph 1012.3mb 62f
9:00am 17 21 mph 1012.5mb 60f
8:00am 16 18 mph 1012.6mb 59f
7:00am 17 21 mph 1012.6mb 60f
6:00am 14 15 mph 1012.6mb 60f
5:00am 17 20 mph 1012.4mb 58f
4:00am 16 20 mph 1012.5mb 60f
3:00am 11 13 mph 1012.1mb 60f
2:00am 10 11 mph 1012.5mb 58f
1:00am 14 15 mph 1012.3mb 63f
12:00am 14
mph
1012.3mb 64f
Fri 07/31 11:00pm 13 14 mph 1012.4mb 64f
10:00pm 8 10 mph 1012.5mb 64f
9:00pm 7
mph
1012mb 68f
8:00pm 7 8 mph 1012mb 62f
7:00pm 11 13 mph 1012.2mb 66f
6:00pm 15 18 mph 1012mb 67f
5:00pm 9 13 mph 1012.4mb 65f
4:00pm 16 18 mph 1012.8mb 61f
3:00pm 15 18 mph 1013.2mb 61f
2:00pm 13 17 mph 1012.8mb 64f
1:00pm 14 17 mph 1013.1mb 62f
12:00pm 17 21 mph 1013.7mb 61f
11:00am 20 23 mph 1013.6mb 61f
10:00am 18 22 mph 1013.3mb 60f
9:00am 18 22 mph 1013.3mb 59f
8:00am 18 22 mph 1012.9mb 59f
7:00am 21 23 mph 1012.5mb 58f
6:00am 17 21 mph 1011.9mb 58f
5:00am 17 20 mph 1011.7mb 60f
4:00am 17 20 mph 1011.4mb 62f
3:00am 16 17 mph 1011.8mb 61f
2:00am 11 14 mph 1011.8mb 59f
1:00am 16 18 mph 1011.6mb 61f
12:00am 20 23 mph 1011.3mb 64f
Thu 07/30 11:00pm 18 22 mph 1011.7mb 65f
10:00pm 18 21 mph 1011.8mb 65f
9:00pm 18 21 mph 1011.5mb 66f
8:00pm 13 14 mph 1011.3mb 66f
7:00pm 3 5 mph 1011.2mb 71f
6:00pm 11 14 mph 1011.6mb 70f
5:00pm 14 15 mph 1011.7mb 69f
4:00pm 15 17 mph 1012mb 67f
3:00pm 15 18 mph 1013mb 66f
2:00pm 23 26 mph 1012.6mb 65f
1:00pm 21 23 mph 1012.7mb 67f
12:00pm 20 22 mph 1013.2mb 65f
11:00am 18 22 mph 1013.2mb 64f
10:00am 20 23 mph 1013.1mb 62f
9:00am 20 24 mph 1012.7mb 61f
8:00am 24 28 mph 1012.1mb 62f
7:00am 25 30 mph 1011.6mb 62f
6:00am 26 33 mph 1011.1mb 62f
5:00am 25 30 mph 1010.4mb 63f
4:00am 25 29 mph 1009.9mb 64f
3:00am 25 30 mph 1009.5mb 65f
2:00am 28 30 mph 1009.2mb 65f
1:00am 24 26 mph 1009.3mb 65f
12:00am 24 28 mph 1009.2mb 67f
Wed 07/29 11:00pm 28 31 mph 1008.6mb 68f
10:00pm 26 32 mph 1008.1mb 68f
9:00pm 23 28 mph 1007.7mb 68f
8:00pm 25 28 mph 1007.3mb 69f
7:00pm 21 23 mph 1007.3mb 69f
6:00pm 17 20 mph 1007.7mb 66f
5:00pm 25 29 mph 1007.4mb 69f
4:00pm 24 28 mph 1007.3mb 69f
3:00pm 29 33 mph 1007.4mb 68f
2:00pm 33 39 mph 1006.9mb 68f
1:00pm 34 40 mph 1006.3mb 67f
12:00pm 34 40 mph 1006mb 68f
10:00am 36 43 mph 1005.2mb 68f
9:00am 36 41 mph 1005.3mb 67f
8:00am 30 40 mph 1005.6mb 68f
7:00am 32 38 mph 1005.4mb 68f
6:00am 28 36 mph 1005.4mb 69f
5:00am 26 31 mph 1005.8mb 70f
4:00am 26 36 mph 1006mb 71f
3:00am 24 30 mph 1006.3mb 72f
2:00am 24 29 mph 1006.8mb 74f
1:00am 22 25 mph 1007.5mb 73f
12:00am 23 28 mph 1007.4mb 76f
Tue 07/28 11:00pm 10 14 mph 1007mb 78f
10:00pm 10 14 mph 1007.3mb 79f
9:00pm 10 16 mph 1007mb 80f
8:00pm 7 9 mph 1007.5mb 80f
7:00pm 5 6 mph 1007.4mb 78f
6:00pm 2
mph
1007.7mb 79f